Canehill, Arkansas
Current Conditions -  °F | °C
As of 7:53 AM on Saturday 25 Oct 2014 (Local Time) from KFYV Reporting Station
Clear Clear  
Wind Chill: 59°   Ceiling: Unl
Heat Index: 59°   Visibility: 10mi
Dew Point: 58°   Wind: 8mph
Humidity: 96%   Direction: 200°SSW
Pressure: 30.11"   Gusts: NA
Location:  35.91°N, 94.4°W
Report Text: KFYV 251253Z 20007KT 10SM CLR 15/14 A3011 RMK AO2 SLP189 T01500144
Loading
Personal Weather Stations






























Interactive Weather Map New forecast layout! Learn more

10-Day Weather Forecast

Advertisements
Track Severe Weather on mobile